createdAt,value
2018-07-15T00:00:04.763Z,14.96
2018-07-15T00:01:13.402Z,15.05
2018-07-15T00:02:22.059Z,14.89
2018-07-15T00:03:30.694Z,14.96
2018-07-15T00:04:39.340Z,14.92
2018-07-15T00:05:47.984Z,14.87
2018-07-15T00:06:56.640Z,14.81
2018-07-15T00:08:05.284Z,14.92
2018-07-15T00:09:13.922Z,14.85
2018-07-15T00:10:22.566Z,14.82
2018-07-15T00:11:31.209Z,14.77
2018-07-15T00:12:39.863Z,14.78
2018-07-15T00:13:48.505Z,14.79
2018-07-15T00:14:57.426Z,14.71
2018-07-15T00:16:06.059Z,14.73
2018-07-15T00:17:14.756Z,14.71
2018-07-15T00:18:23.359Z,14.59
2018-07-15T00:19:32.276Z,14.77
2018-07-15T00:20:41.179Z,14.73
2018-07-15T00:21:50.101Z,14.7
2018-07-15T00:22:58.744Z,14.62
2018-07-15T00:24:07.653Z,14.63
2018-07-15T00:25:16.292Z,14.62
2018-07-15T00:26:25.203Z,14.63
2018-07-15T00:27:34.118Z,14.61
2018-07-15T00:28:43.028Z,14.63
2018-07-15T00:29:51.674Z,14.58
2018-07-15T00:31:00.313Z,14.56
2018-07-15T00:32:08.965Z,14.52
2018-07-15T00:33:17.607Z,14.53
2018-07-15T00:34:26.263Z,14.52
2018-07-15T00:35:34.898Z,14.53
2018-07-15T00:36:43.553Z,14.51
2018-07-15T00:37:52.455Z,14.44
2018-07-15T00:39:01.366Z,14.52
2018-07-15T00:40:10.020Z,14.44
2018-07-15T00:41:18.662Z,14.43
2018-07-15T00:42:27.308Z,14.37
2018-07-15T00:43:36.213Z,14.4
2018-07-15T00:44:44.862Z,14.43
2018-07-15T00:45:53.509Z,14.38
2018-07-15T00:47:02.168Z,14.45
2018-07-15T00:48:10.813Z,14.43
2018-07-15T00:49:19.449Z,14.37
2018-07-15T00:50:28.100Z,14.38
2018-07-15T00:51:36.740Z,14.36
2018-07-15T00:52:45.654Z,14.37
2018-07-15T00:53:54.290Z,14.34
2018-07-15T00:55:02.940Z,14.26
2018-07-15T00:56:11.580Z,14.34
2018-07-15T00:57:20.244Z,14.26
2018-07-15T00:58:28.878Z,14.33
2018-07-15T00:59:37.524Z,14.25
2018-07-15T01:00:46.166Z,14.23
2018-07-15T01:01:55.089Z,14.25
2018-07-15T01:03:03.732Z,14.22
2018-07-15T01:04:12.373Z,14.28
2018-07-15T01:05:21.018Z,14.23
2018-07-15T01:06:29.658Z,14.26
2018-07-15T01:07:38.581Z,14.19
2018-07-15T01:08:47.222Z,14.13
2018-07-15T01:09:55.875Z,14.12
2018-07-15T01:11:04.512Z,14.04
2018-07-15T01:12:13.162Z,14
2018-07-15T01:13:21.810Z,14.11
2018-07-15T01:14:30.451Z,14.13
2018-07-15T01:15:39.091Z,14.03
2018-07-15T01:16:48.003Z,13.94
2018-07-15T01:17:56.909Z,13.97
2018-07-15T01:19:05.555Z,13.94
2018-07-15T01:20:14.192Z,13.95
2018-07-15T01:21:23.108Z,13.95
2018-07-15T01:22:32.017Z,13.97
2018-07-15T01:23:40.663Z,13.94
2018-07-15T01:24:49.575Z,13.86
2018-07-15T01:25:58.207Z,13.85
2018-07-15T01:27:06.857Z,13.91
2018-07-15T01:28:16.024Z,13.87
2018-07-15T01:29:24.678Z,13.87
2018-07-15T01:30:33.313Z,13.8
2018-07-15T01:31:41.964Z,13.82
2018-07-15T01:32:50.605Z,13.82
2018-07-15T01:33:59.260Z,13.78
2018-07-15T01:35:07.897Z,13.8
2018-07-15T01:36:16.802Z,13.79
2018-07-15T01:37:25.446Z,13.75
2018-07-15T01:38:34.094Z,13.75
2018-07-15T01:39:42.735Z,13.8
2018-07-15T01:40:51.642Z,13.78
2018-07-15T01:42:00.285Z,13.65
2018-07-15T01:43:08.927Z,13.76
2018-07-15T01:44:17.854Z,13.73
2018-07-15T01:45:26.763Z,13.78
2018-07-15T01:46:35.409Z,13.75
2018-07-15T01:47:44.052Z,13.75
2018-07-15T01:48:52.695Z,13.75
2018-07-15T01:50:01.338Z,13.7
2018-07-15T01:51:09.982Z,13.67
2018-07-15T01:52:18.620Z,13.67
2018-07-15T01:53:27.271Z,13.75
2018-07-15T01:54:35.915Z,13.71
2018-07-15T01:55:44.560Z,13.76
2018-07-15T01:56:53.201Z,13.65
2018-07-15T01:58:01.851Z,13.79
2018-07-15T01:59:10.500Z,13.7
2018-07-15T02:00:19.145Z,13.71
2018-07-15T02:01:28.055Z,13.71
2018-07-15T02:02:36.694Z,13.73
2018-07-15T02:03:45.345Z,13.71
2018-07-15T02:04:53.992Z,13.71
2018-07-15T02:06:02.640Z,13.75
2018-07-15T02:07:11.280Z,13.61
2018-07-15T02:08:19.925Z,13.65
2018-07-15T02:09:28.569Z,13.57
2018-07-15T02:10:37.217Z,13.7
2018-07-15T02:11:45.858Z,13.58
2018-07-15T02:12:54.507Z,13.61
2018-07-15T02:14:03.150Z,13.6
2018-07-15T02:15:12.058Z,13.54
2018-07-15T02:16:20.969Z,13.55
2018-07-15T02:17:29.613Z,13.6
2018-07-15T02:18:38.255Z,13.64
2018-07-15T02:19:46.896Z,13.61
2018-07-15T02:20:55.541Z,13.46
2018-07-15T02:22:04.189Z,13.52
2018-07-15T02:23:12.847Z,13.54
2018-07-15T02:24:22.012Z,13.5
2018-07-15T02:25:30.661Z,13.5
2018-07-15T02:26:39.568Z,13.36
2018-07-15T02:27:48.215Z,13.4
2018-07-15T02:28:56.855Z,13.3
2018-07-15T02:30:05.773Z,13.37
2018-07-15T02:31:14.421Z,13.36
2018-07-15T02:32:23.331Z,13.31
2018-07-15T02:33:32.002Z,13.31
2018-07-15T02:34:40.620Z,13.26
2018-07-15T02:35:49.535Z,13.27
2018-07-15T02:36:58.461Z,13.26
2018-07-15T02:38:07.095Z,13.28
2018-07-15T02:39:15.997Z,13.2
2018-07-15T02:40:24.640Z,13.26
2018-07-15T02:41:33.284Z,13.17
2018-07-15T02:42:42.205Z,13.16
2018-07-15T02:43:50.859Z,13.24
2018-07-15T02:45:00.061Z,13.19
2018-07-15T02:46:08.976Z,13.16
2018-07-15T02:47:17.888Z,13.03
2018-07-15T02:48:26.524Z,13.03
2018-07-15T02:49:35.171Z,13.01
2018-07-15T02:50:44.365Z,13.02
2018-07-15T02:51:53.276Z,12.99
2018-07-15T02:53:01.924Z,13.01
2018-07-15T02:54:10.569Z,13.01
2018-07-15T02:55:19.212Z,12.95
2018-07-15T02:56:27.854Z,12.93
2018-07-15T02:57:36.511Z,13.02
2018-07-15T02:58:45.423Z,12.98
2018-07-15T02:59:54.067Z,13.02
2018-07-15T03:01:02.974Z,12.93
2018-07-15T03:02:11.629Z,12.99
2018-07-15T03:03:20.274Z,12.93
2018-07-15T03:04:28.918Z,12.93
2018-07-15T03:05:37.556Z,12.86
2018-07-15T03:06:46.205Z,12.9
2018-07-15T03:07:54.850Z,12.84
2018-07-15T03:09:03.761Z,12.86
2018-07-15T03:10:12.669Z,12.83
2018-07-15T03:11:21.321Z,12.83
2018-07-15T03:12:30.234Z,12.83
2018-07-15T03:13:38.884Z,12.86
2018-07-15T03:14:47.534Z,12.86
2018-07-15T03:15:56.454Z,12.78
2018-07-15T03:17:05.099Z,12.8
2018-07-15T03:18:14.043Z,12.8
2018-07-15T03:19:22.933Z,12.83
2018-07-15T03:20:31.575Z,12.8
2018-07-15T03:21:40.219Z,12.81
2018-07-15T03:22:48.872Z,12.81
2018-07-15T03:23:57.530Z,12.75
2018-07-15T03:25:06.696Z,12.76
2018-07-15T03:26:15.613Z,12.76
2018-07-15T03:27:24.786Z,12.72
2018-07-15T03:28:33.696Z,12.66
2018-07-15T03:29:42.345Z,12.69
2018-07-15T03:30:50.993Z,12.72
2018-07-15T03:31:59.651Z,12.62
2018-07-15T03:33:08.290Z,12.62
2018-07-15T03:34:16.944Z,12.61
2018-07-15T03:35:25.861Z,12.62
2018-07-15T03:36:34.510Z,12.7
2018-07-15T03:37:43.149Z,12.65
2018-07-15T03:38:51.804Z,12.58
2018-07-15T03:40:00.646Z,12.66
2018-07-15T03:41:09.091Z,12.66
2018-07-15T03:42:17.725Z,12.68
2018-07-15T03:43:26.378Z,12.62
2018-07-15T03:44:35.017Z,12.58
2018-07-15T03:45:43.930Z,12.55
2018-07-15T03:46:52.564Z,12.62
2018-07-15T03:48:01.208Z,12.58
2018-07-15T03:49:09.858Z,12.58
2018-07-15T03:50:18.505Z,12.55
2018-07-15T03:51:27.152Z,12.61
2018-07-15T03:52:35.784Z,12.62
2018-07-15T03:53:44.431Z,12.61
2018-07-15T03:54:53.077Z,12.58
2018-07-15T03:56:01.729Z,12.58
2018-07-15T03:57:10.889Z,12.61
2018-07-15T03:58:19.539Z,12.57
2018-07-15T03:59:28.445Z,12.62
2018-07-15T04:00:37.137Z,12.51
2018-07-15T04:01:46.409Z,12.57
2018-07-15T04:02:55.055Z,12.47
2018-07-15T04:04:03.697Z,12.51
2018-07-15T04:05:12.350Z,12.45
2018-07-15T04:06:20.998Z,12.4
2018-07-15T04:07:29.629Z,12.53
2018-07-15T04:08:38.310Z,12.48
2018-07-15T04:09:46.916Z,12.57
2018-07-15T04:10:55.569Z,12.48
2018-07-15T04:12:04.207Z,12.54
2018-07-15T04:13:12.854Z,12.43
2018-07-15T04:14:21.490Z,12.43
2018-07-15T04:15:30.142Z,12.47
2018-07-15T04:16:38.780Z,12.55
2018-07-15T04:17:47.428Z,12.45
2018-07-15T04:18:56.060Z,12.51
2018-07-15T04:20:04.975Z,12.51
2018-07-15T04:21:13.882Z,12.51
2018-07-15T04:22:22.529Z,12.57
2018-07-15T04:23:31.161Z,12.48
2018-07-15T04:24:39.812Z,12.45
2018-07-15T04:25:48.456Z,12.55
2018-07-15T04:26:57.102Z,12.51
2018-07-15T04:28:05.750Z,12.54
2018-07-15T04:29:14.391Z,12.48
2018-07-15T04:30:23.045Z,12.55
2018-07-15T04:31:31.960Z,12.48
2018-07-15T04:32:40.617Z,12.55
2018-07-15T04:33:49.255Z,12.57
2018-07-15T04:34:57.897Z,12.58
2018-07-15T04:36:06.807Z,12.55
2018-07-15T04:37:15.441Z,12.62
2018-07-15T04:38:24.097Z,12.66
2018-07-15T04:39:33.000Z,12.65
2018-07-15T04:40:41.646Z,12.61
2018-07-15T04:41:50.551Z,12.63
2018-07-15T04:42:59.201Z,12.65
2018-07-15T04:44:07.845Z,12.62
2018-07-15T04:45:16.498Z,12.66
2018-07-15T04:46:25.144Z,12.72
2018-07-15T04:47:33.776Z,12.7
2018-07-15T04:48:42.425Z,12.8
2018-07-15T04:49:51.331Z,12.73
2018-07-15T04:50:59.982Z,12.78
2018-07-15T04:52:08.620Z,12.87
2018-07-15T04:53:17.264Z,12.9
2018-07-15T04:54:25.904Z,12.9
2018-07-15T04:55:34.555Z,12.86
2018-07-15T04:56:43.190Z,12.94
2018-07-15T04:57:51.837Z,12.94
2018-07-15T04:59:00.478Z,12.95
2018-07-15T05:00:09.131Z,13.02
2018-07-15T05:01:17.777Z,13.06
2018-07-15T05:02:26.416Z,13.03
2018-07-15T05:03:35.058Z,13.09
2018-07-15T05:04:43.700Z,13.17
2018-07-15T05:05:52.354Z,13.13
2018-07-15T05:07:01.254Z,13.2
2018-07-15T05:08:10.168Z,13.26
2018-07-15T05:09:18.803Z,13.37
2018-07-15T05:10:27.456Z,13.33
2018-07-15T05:11:36.096Z,13.42
2018-07-15T05:12:44.746Z,13.46
2018-07-15T05:13:53.380Z,13.46
2018-07-15T05:15:02.035Z,13.5
2018-07-15T05:16:10.675Z,13.57
2018-07-15T05:17:19.321Z,13.58
2018-07-15T05:18:28.048Z,13.58
2018-07-15T05:19:36.605Z,13.68
2018-07-15T05:20:45.251Z,13.78
2018-07-15T05:21:53.899Z,13.78
2018-07-15T05:23:02.808Z,13.85
2018-07-15T05:24:11.444Z,13.93
2018-07-15T05:25:20.094Z,13.89
2018-07-15T05:26:28.780Z,13.94
2018-07-15T05:27:37.393Z,13.97
2018-07-15T05:28:46.029Z,14.03
2018-07-15T05:29:54.684Z,14.05
2018-07-15T05:31:03.326Z,14.03
2018-07-15T05:32:11.978Z,14.05
2018-07-15T05:33:20.616Z,14.16
2018-07-15T05:34:29.261Z,14.19
2018-07-15T05:35:37.903Z,14.23
2018-07-15T05:36:46.550Z,14.25
2018-07-15T05:37:55.195Z,14.26
2018-07-15T05:39:03.837Z,14.37
2018-07-15T05:40:12.485Z,14.45
2018-07-15T05:41:21.134Z,14.4
2018-07-15T05:42:29.786Z,14.48
2018-07-15T05:43:38.433Z,14.45
2018-07-15T05:44:47.339Z,14.52
2018-07-15T05:45:55.979Z,14.62
2018-07-15T05:47:04.629Z,14.67
2018-07-15T05:48:13.275Z,14.67
2018-07-15T05:49:22.189Z,14.73
2018-07-15T05:50:30.831Z,14.89
2018-07-15T05:51:39.743Z,14.89
2018-07-15T05:52:48.394Z,14.9
2018-07-15T05:53:57.041Z,14.99
2018-07-15T05:55:06.205Z,14.97
2018-07-15T05:56:15.164Z,15.12
2018-07-15T05:57:23.760Z,15.22
2018-07-15T05:58:32.406Z,15.26
2018-07-15T05:59:41.061Z,15.37
2018-07-15T06:00:49.699Z,15.37
2018-07-15T06:01:58.345Z,15.51
2018-07-15T06:03:07.513Z,15.59
2018-07-15T06:04:16.163Z,15.62
2018-07-15T06:05:24.804Z,15.66
2018-07-15T06:06:33.452Z,15.63
2018-07-15T06:07:42.097Z,15.72
2018-07-15T06:08:50.746Z,15.7
2018-07-15T06:09:59.387Z,15.81
2018-07-15T06:11:08.305Z,15.88
2018-07-15T06:12:16.948Z,15.94
2018-07-15T06:13:25.858Z,16
2018-07-15T06:14:34.499Z,16.08
2018-07-15T06:15:43.145Z,16.16
2018-07-15T06:16:51.788Z,16.16
2018-07-15T06:18:00.448Z,16.24
2018-07-15T06:19:09.083Z,16.28
2018-07-15T06:20:17.727Z,16.25
2018-07-15T06:21:26.374Z,16.37
2018-07-15T06:22:35.044Z,16.41
2018-07-15T06:23:43.665Z,16.37
2018-07-15T06:24:52.310Z,16.43
2018-07-15T06:26:00.958Z,16.55
2018-07-15T06:27:09.600Z,16.62
2018-07-15T06:28:18.251Z,16.64
2018-07-15T06:29:26.894Z,16.74
2018-07-15T06:30:35.544Z,16.74
2018-07-15T06:31:44.197Z,16.77
2018-07-15T06:32:53.181Z,16.74
2018-07-15T06:34:01.832Z,16.83
2018-07-15T06:35:10.476Z,16.89
2018-07-15T06:36:19.123Z,16.97
2018-07-15T06:37:28.020Z,16.94
2018-07-15T06:38:36.672Z,17.07
2018-07-15T06:39:45.323Z,17.04
2018-07-15T06:40:53.969Z,17.02
2018-07-15T06:42:02.605Z,17.2
2018-07-15T06:43:11.256Z,17.16
2018-07-15T06:44:19.897Z,17.27
2018-07-15T06:45:28.553Z,17.34
2018-07-15T06:46:37.191Z,17.3
2018-07-15T06:47:45.839Z,17.31
2018-07-15T06:48:54.483Z,17.42
2018-07-15T06:50:03.140Z,17.42
2018-07-15T06:51:11.787Z,17.46
2018-07-15T06:52:20.695Z,17.44
2018-07-15T06:53:29.338Z,17.49
2018-07-15T06:54:37.984Z,17.59
2018-07-15T06:55:46.910Z,17.63
2018-07-15T06:56:56.114Z,17.75
2018-07-15T06:58:04.765Z,17.66
2018-07-15T06:59:13.403Z,17.75
2018-07-15T07:00:22.068Z,17.73
2018-07-15T07:01:31.022Z,17.76
2018-07-15T07:02:39.624Z,17.79
2018-07-15T07:03:48.284Z,17.9
2018-07-15T07:04:56.916Z,18.02
2018-07-15T07:06:05.561Z,18.05
2018-07-15T07:07:14.237Z,18.06
2018-07-15T07:08:22.852Z,18.09
2018-07-15T07:09:31.500Z,18.03
2018-07-15T07:10:40.151Z,18.12
2018-07-15T07:11:48.802Z,18.06
2018-07-15T07:12:57.716Z,18.18
2018-07-15T07:14:06.395Z,18.19
2018-07-15T07:15:15.314Z,18.19
2018-07-15T07:16:23.959Z,18.27
2018-07-15T07:17:32.611Z,18.24
2018-07-15T07:18:41.510Z,18.3
2018-07-15T07:19:50.165Z,18.42
2018-07-15T07:20:58.807Z,18.37
2018-07-15T07:22:07.465Z,18.43
2018-07-15T07:23:16.109Z,18.51
2018-07-15T07:24:24.756Z,18.51
2018-07-15T07:25:33.403Z,18.51
2018-07-15T07:26:42.065Z,18.51
2018-07-15T07:27:50.709Z,18.57
2018-07-15T07:28:59.352Z,18.68
2018-07-15T07:30:08.000Z,18.66
2018-07-15T07:31:16.645Z,18.7
2018-07-15T07:32:25.295Z,18.73
2018-07-15T07:33:33.943Z,18.82
2018-07-15T07:34:42.596Z,18.85
2018-07-15T07:35:51.500Z,18.85
2018-07-15T07:37:00.153Z,18.98
2018-07-15T07:38:08.802Z,18.94
2018-07-15T07:39:17.450Z,19.09
2018-07-15T07:40:26.093Z,19
2018-07-15T07:41:34.746Z,19.08
2018-07-15T07:42:43.393Z,19.09
2018-07-15T07:43:52.043Z,19.17
2018-07-15T07:45:00.948Z,19.16
2018-07-15T07:46:09.598Z,19.26
2018-07-15T07:47:18.246Z,19.24
2018-07-15T07:48:26.896Z,19.29
2018-07-15T07:49:35.548Z,19.37
2018-07-15T07:50:44.194Z,19.3
2018-07-15T07:51:53.109Z,19.27
2018-07-15T07:53:01.757Z,19.44
2018-07-15T07:54:10.409Z,19.39
2018-07-15T07:55:19.054Z,19.37
2018-07-15T07:56:27.707Z,19.44
2018-07-15T07:57:36.354Z,19.45
2018-07-15T07:58:45.012Z,19.56
2018-07-15T07:59:53.650Z,19.64
2018-07-15T08:01:02.300Z,19.7
2018-07-15T08:02:10.946Z,19.71
2018-07-15T08:03:19.864Z,19.63
2018-07-15T08:04:28.774Z,19.72
2018-07-15T08:05:37.422Z,19.79
2018-07-15T08:06:46.070Z,19.75
2018-07-15T08:07:54.715Z,19.78
2018-07-15T08:09:03.373Z,19.81
2018-07-15T08:10:12.016Z,19.79
2018-07-15T08:11:20.665Z,19.89
2018-07-15T08:12:29.308Z,19.93
2018-07-15T08:13:38.227Z,19.97
2018-07-15T08:14:46.877Z,20.04
2018-07-15T08:15:55.523Z,20.02
2018-07-15T08:17:04.168Z,20.12
2018-07-15T08:18:12.819Z,20.14
2018-07-15T08:19:21.466Z,20.12
2018-07-15T08:20:30.117Z,20.21
2018-07-15T08:21:38.759Z,20.19
2018-07-15T08:22:47.411Z,20.14
2018-07-15T08:23:56.059Z,20.21
2018-07-15T08:25:04.709Z,20.27
2018-07-15T08:26:13.358Z,20.24
2018-07-15T08:27:22.003Z,20.19
2018-07-15T08:28:30.836Z,20.29
2018-07-15T08:29:39.859Z,20.37
2018-07-15T08:30:48.501Z,20.4
2018-07-15T08:31:57.420Z,20.44
2018-07-15T08:33:06.354Z,20.5
2018-07-15T08:34:15.262Z,20.55
2018-07-15T08:35:23.904Z,20.56
2018-07-15T08:36:32.557Z,20.58
2018-07-15T08:37:41.205Z,20.55
2018-07-15T08:38:49.855Z,20.66
2018-07-15T08:39:58.500Z,20.63
2018-07-15T08:41:07.149Z,20.66
2018-07-15T08:42:15.797Z,20.85
2018-07-15T08:43:24.449Z,20.88
2018-07-15T08:44:33.103Z,20.77
2018-07-15T08:45:41.749Z,20.88
2018-07-15T08:46:50.396Z,20.95
2018-07-15T08:47:59.315Z,20.86
2018-07-15T08:49:07.972Z,20.96
2018-07-15T08:50:16.880Z,20.93
2018-07-15T08:51:25.528Z,20.98
2018-07-15T08:52:34.176Z,21.01
2018-07-15T08:53:42.827Z,21.03
2018-07-15T08:54:51.471Z,21.1
2018-07-15T08:56:00.387Z,21.1
2018-07-15T08:57:09.033Z,21.08
2018-07-15T08:58:17.685Z,21.14
2018-07-15T08:59:26.333Z,21.29
2018-07-15T09:00:34.980Z,21.22
2018-07-15T09:01:43.633Z,21.35
2018-07-15T09:02:52.274Z,21.38
2018-07-15T09:04:00.931Z,21.43
2018-07-15T09:05:09.579Z,21.41
2018-07-15T09:06:18.229Z,21.43
2018-07-15T09:07:26.875Z,21.45
2018-07-15T09:08:35.532Z,21.51
2018-07-15T09:09:44.180Z,21.43
2018-07-15T09:10:52.828Z,21.58
2018-07-15T09:12:01.480Z,21.59
2018-07-15T09:13:10.129Z,21.53
2018-07-15T09:14:19.040Z,21.56
2018-07-15T09:15:27.692Z,21.53
2018-07-15T09:16:36.338Z,21.53
2018-07-15T09:17:44.991Z,21.58
2018-07-15T09:18:53.640Z,21.53
2018-07-15T09:20:02.558Z,21.65
2018-07-15T09:21:11.523Z,21.75
2018-07-15T09:22:20.115Z,21.78
2018-07-15T09:23:28.766Z,21.85
2018-07-15T09:24:37.418Z,21.89
2018-07-15T09:25:46.078Z,21.94
2018-07-15T09:26:54.980Z,21.92
2018-07-15T09:28:03.639Z,21.85
2018-07-15T09:29:12.551Z,21.88
2018-07-15T09:30:21.472Z,21.97
2018-07-15T09:31:30.112Z,21.89
2018-07-15T09:32:38.764Z,21.97
2018-07-15T09:33:47.410Z,21.99
2018-07-15T09:34:56.073Z,21.94
2018-07-15T09:36:04.725Z,21.81
2018-07-15T09:37:13.365Z,21.99
2018-07-15T09:38:22.012Z,22.01
2018-07-15T09:39:30.925Z,22.12
2018-07-15T09:40:39.580Z,22.01
2018-07-15T09:41:48.226Z,22.1
2018-07-15T09:42:57.147Z,22.1
2018-07-15T09:44:05.793Z,22.16
2018-07-15T09:45:14.449Z,22.16
2018-07-15T09:46:23.361Z,22.22
2018-07-15T09:47:32.015Z,22.3
2018-07-15T09:48:40.654Z,22.3
2018-07-15T09:49:49.314Z,22.38
2018-07-15T09:50:58.227Z,22.46
2018-07-15T09:52:06.881Z,22.51
2018-07-15T09:53:15.787Z,22.56
2018-07-15T09:54:24.445Z,22.71
2018-07-15T09:55:33.100Z,22.73
2018-07-15T09:56:41.754Z,22.76
2018-07-15T09:57:50.674Z,22.74
2018-07-15T09:58:59.574Z,22.74
2018-07-15T10:00:08.229Z,22.74
2018-07-15T10:01:16.876Z,22.78
2018-07-15T10:02:25.535Z,22.78
2018-07-15T10:03:34.459Z,22.86
2018-07-15T10:04:43.156Z,22.86
2018-07-15T10:05:52.112Z,22.99
2018-07-15T10:07:00.771Z,22.96
2018-07-15T10:08:09.414Z,23.04
2018-07-15T10:09:18.331Z,23.08
2018-07-15T10:10:27.025Z,23.16
2018-07-15T10:11:35.635Z,23.11
2018-07-15T10:12:44.283Z,23.17
2018-07-15T10:13:52.929Z,23.08
2018-07-15T10:15:01.579Z,23.16
2018-07-15T10:16:10.226Z,23.17
2018-07-15T10:17:18.885Z,23.26
2018-07-15T10:18:27.798Z,23.26
2018-07-15T10:19:36.445Z,23.26
2018-07-15T10:20:45.092Z,23.29
2018-07-15T10:21:53.746Z,23.26
2018-07-15T10:23:02.391Z,23.28
2018-07-15T10:24:11.051Z,23.29
2018-07-15T10:25:19.703Z,23.25
2018-07-15T10:26:28.378Z,23.11
2018-07-15T10:27:37.001Z,23.25
2018-07-15T10:28:45.917Z,23.45
2018-07-15T10:29:54.834Z,23.62
2018-07-15T10:31:03.481Z,23.51
2018-07-15T10:32:12.398Z,23.51
2018-07-15T10:33:21.308Z,23.56
2018-07-15T10:34:29.957Z,23.63
2018-07-15T10:35:38.613Z,23.66
2018-07-15T10:36:47.530Z,23.63
2018-07-15T10:37:56.180Z,23.64
2018-07-15T10:39:04.896Z,23.79
2018-07-15T10:40:13.480Z,23.91
2018-07-15T10:41:22.134Z,23.86
2018-07-15T10:42:30.785Z,23.91
2018-07-15T10:43:39.434Z,23.89
2018-07-15T10:44:48.092Z,23.95
2018-07-15T10:45:56.741Z,23.94
2018-07-15T10:47:05.396Z,23.91
2018-07-15T10:48:14.044Z,23.92
2018-07-15T10:49:22.963Z,23.99
2018-07-15T10:50:31.613Z,24.03
2018-07-15T10:51:40.535Z,24.06
2018-07-15T10:52:49.208Z,24.01
2018-07-15T10:53:57.843Z,24.07
2018-07-15T10:55:06.497Z,24.1
2018-07-15T10:56:15.409Z,24.13
2018-07-15T10:57:24.068Z,24.25
2018-07-15T10:58:32.977Z,24.16
2018-07-15T10:59:41.916Z,24.26
2018-07-15T11:00:50.592Z,24.18
2018-07-15T11:01:59.491Z,24.25
2018-07-15T11:03:08.141Z,24.28
2018-07-15T11:04:16.792Z,24.26
2018-07-15T11:05:25.706Z,24.43
2018-07-15T11:06:34.890Z,24.34
2018-07-15T11:07:43.539Z,24.31
2018-07-15T11:08:52.190Z,24.34
2018-07-15T11:10:01.101Z,24.37
2018-07-15T11:11:09.752Z,24.38
2018-07-15T11:12:18.407Z,24.31
2018-07-15T11:13:27.180Z,24.29
2018-07-15T11:14:35.756Z,24.34
2018-07-15T11:15:44.369Z,24.32
2018-07-15T11:16:53.027Z,24.41
2018-07-15T11:18:01.685Z,24.5
2018-07-15T11:19:10.341Z,24.56
2018-07-15T11:20:19.253Z,24.63
2018-07-15T11:21:28.192Z,24.66
2018-07-15T11:22:36.845Z,24.79
2018-07-15T11:23:45.502Z,24.85
2018-07-15T11:24:54.142Z,24.79
2018-07-15T11:26:03.118Z,24.92
2018-07-15T11:27:11.724Z,24.93
2018-07-15T11:28:20.379Z,24.96
2018-07-15T11:29:29.033Z,24.99
2018-07-15T11:30:37.675Z,24.99
2018-07-15T11:31:46.601Z,25.04
2018-07-15T11:32:55.511Z,25.04
2018-07-15T11:34:04.175Z,25.18
2018-07-15T11:35:12.815Z,25.12
2018-07-15T11:36:21.734Z,25.11
2018-07-15T11:37:30.381Z,25.09
2018-07-15T11:38:39.046Z,25.11
2018-07-15T11:39:47.689Z,25.21
2018-07-15T11:40:56.348Z,25.11
2018-07-15T11:42:04.996Z,25.16
2018-07-15T11:43:13.659Z,25.21
2018-07-15T11:44:22.308Z,25.16
2018-07-15T11:45:30.956Z,25.15
2018-07-15T11:46:39.606Z,25.25
2018-07-15T11:47:48.259Z,25.34
2018-07-15T11:48:56.923Z,25.36
2018-07-15T11:50:05.851Z,25.36
2018-07-15T11:51:14.767Z,25.34
2018-07-15T11:52:23.417Z,25.41
2018-07-15T11:53:32.337Z,25.44
2018-07-15T11:54:41.066Z,25.4
2018-07-15T11:55:50.186Z,25.39
2018-07-15T11:56:58.829Z,25.33
2018-07-15T11:58:07.489Z,25.39
2018-07-15T11:59:16.140Z,25.44
2018-07-15T12:00:24.797Z,25.51
2018-07-15T12:01:33.766Z,25.54
2018-07-15T12:02:42.357Z,25.48
2018-07-15T12:03:51.015Z,25.62
2018-07-15T12:04:59.669Z,25.63
2018-07-15T12:06:08.324Z,25.44
2018-07-15T12:07:16.966Z,25.58
2018-07-15T12:08:25.623Z,25.67
2018-07-15T12:09:34.270Z,25.7
2018-07-15T12:10:42.937Z,25.67
2018-07-15T12:11:51.583Z,25.74
2018-07-15T12:13:00.237Z,25.74
2018-07-15T12:14:09.152Z,25.73
2018-07-15T12:15:17.813Z,25.7
2018-07-15T12:16:26.465Z,25.86
2018-07-15T12:17:35.384Z,25.81
2018-07-15T12:18:44.033Z,25.92
2018-07-15T12:19:52.694Z,25.98
2018-07-15T12:21:01.344Z,26.06
2018-07-15T12:22:09.994Z,26.04
2018-07-15T12:23:18.911Z,26.11
2018-07-15T12:24:27.573Z,26.11
2018-07-15T12:25:36.210Z,26.08
2018-07-15T12:26:44.869Z,26.1
2018-07-15T12:27:53.525Z,26.07
2018-07-15T12:29:02.189Z,26.23
2018-07-15T12:30:10.831Z,26.08
2018-07-15T12:31:19.759Z,26.16
2018-07-15T12:32:28.406Z,26.07
2018-07-15T12:33:37.067Z,26.08
2018-07-15T12:34:45.711Z,26.06
2018-07-15T12:35:54.365Z,26.13
2018-07-15T12:37:03.024Z,26.22
2018-07-15T12:38:11.680Z,26.15
2018-07-15T12:39:20.328Z,26.13
2018-07-15T12:40:29.235Z,26.1
2018-07-15T12:41:37.886Z,26.07
2018-07-15T12:42:46.537Z,26.13
2018-07-15T12:43:55.198Z,26.11
2018-07-15T12:45:03.849Z,26.24
2018-07-15T12:46:12.779Z,26.24
2018-07-15T12:47:21.689Z,26.36
2018-07-15T12:48:30.350Z,26.41
2018-07-15T12:49:38.998Z,26.27
2018-07-15T12:50:47.656Z,26.37
2018-07-15T12:51:56.567Z,26.37
2018-07-15T12:53:05.493Z,26.48
2018-07-15T12:54:14.411Z,26.44
2018-07-15T12:55:23.067Z,26.45
2018-07-15T12:56:31.709Z,26.45
2018-07-15T12:57:40.360Z,26.6
2018-07-15T12:58:49.019Z,26.67
2018-07-15T12:59:57.675Z,26.61
2018-07-15T13:01:06.333Z,26.56
2018-07-15T13:02:14.977Z,26.42
2018-07-15T13:03:23.635Z,26.51
2018-07-15T13:04:32.547Z,26.42
2018-07-15T13:05:41.480Z,26.19
2018-07-15T13:06:50.124Z,26.24
2018-07-15T13:07:58.787Z,26.29
2018-07-15T13:09:07.435Z,26.24
2018-07-15T13:10:16.364Z,26.26
2018-07-15T13:11:25.008Z,26.33
2018-07-15T13:12:33.663Z,26.34
2018-07-15T13:13:42.321Z,26.31
2018-07-15T13:14:50.983Z,26.34
2018-07-15T13:15:59.633Z,26.27
2018-07-15T13:17:08.542Z,26.37
2018-07-15T13:18:17.192Z,26.46
2018-07-15T13:19:25.845Z,26.41
2018-07-15T13:20:34.510Z,26.51
2018-07-15T13:21:43.161Z,26.41
2018-07-15T13:22:51.817Z,26.53
2018-07-15T13:24:00.728Z,26.51
2018-07-15T13:25:09.394Z,26.56
2018-07-15T13:26:18.050Z,26.59
2018-07-15T13:27:26.705Z,26.56
2018-07-15T13:28:35.614Z,26.56
2018-07-15T13:29:44.323Z,26.67
2018-07-15T13:30:52.919Z,26.63
2018-07-15T13:32:01.574Z,26.59
2018-07-15T13:33:10.492Z,26.52
2018-07-15T13:34:19.151Z,26.52
2018-07-15T13:35:28.078Z,26.56
2018-07-15T13:36:36.734Z,26.61
2018-07-15T13:37:45.388Z,26.52
2018-07-15T13:38:54.037Z,26.61
2018-07-15T13:40:02.692Z,26.55
2018-07-15T13:41:11.344Z,26.59
2018-07-15T13:42:20.001Z,26.6
2018-07-15T13:43:28.649Z,26.52
2018-07-15T13:44:37.301Z,26.42
2018-07-15T13:45:45.954Z,26.59
2018-07-15T13:46:54.611Z,26.46
2018-07-15T13:48:03.261Z,26.48
2018-07-15T13:49:11.918Z,26.55
2018-07-15T13:50:20.838Z,26.55
2018-07-15T13:51:29.496Z,26.49
2018-07-15T13:52:38.146Z,26.55
2018-07-15T13:53:46.803Z,26.68
2018-07-15T13:54:55.719Z,26.73
2018-07-15T13:56:04.372Z,26.68
2018-07-15T13:57:13.038Z,26.74
2018-07-15T13:58:21.953Z,26.68
2018-07-15T13:59:30.606Z,26.68
2018-07-15T14:00:39.257Z,26.76
2018-07-15T14:01:48.186Z,26.71
2018-07-15T14:02:56.849Z,26.7
2018-07-15T14:04:05.544Z,26.66
2018-07-15T14:05:14.148Z,26.7
2018-07-15T14:06:22.799Z,26.78
2018-07-15T14:07:31.450Z,26.76
2018-07-15T14:08:40.103Z,26.74
2018-07-15T14:09:48.750Z,26.79
2018-07-15T14:10:57.406Z,26.76
2018-07-15T14:12:06.060Z,26.71
2018-07-15T14:13:14.719Z,26.83
2018-07-15T14:14:23.382Z,26.76
2018-07-15T14:15:32.344Z,26.74
2018-07-15T14:16:40.997Z,26.76
2018-07-15T14:17:49.912Z,26.67
2018-07-15T14:18:58.571Z,26.64
2018-07-15T14:20:07.218Z,26.68
2018-07-15T14:21:15.885Z,26.67
2018-07-15T14:22:24.528Z,26.74
2018-07-15T14:23:33.448Z,26.79
2018-07-15T14:24:42.357Z,26.78
2018-07-15T14:25:51.280Z,26.79
2018-07-15T14:26:59.930Z,26.73
2018-07-15T14:28:08.858Z,26.76
2018-07-15T14:29:17.508Z,26.7
2018-07-15T14:30:26.158Z,26.83
2018-07-15T14:31:35.074Z,26.86
2018-07-15T14:32:43.725Z,26.78
2018-07-15T14:33:52.387Z,26.81
2018-07-15T14:35:01.036Z,26.78
2018-07-15T14:36:09.697Z,26.81
2018-07-15T14:37:18.343Z,26.85
2018-07-15T14:38:27.281Z,26.82
2018-07-15T14:39:35.927Z,26.74
2018-07-15T14:40:44.582Z,26.78
2018-07-15T14:41:53.226Z,26.7
2018-07-15T14:43:01.889Z,26.68
2018-07-15T14:44:10.540Z,26.59
2018-07-15T14:45:19.463Z,26.59
2018-07-15T14:46:28.105Z,26.45